createdAt,value
2022-08-11T00:00:59.332Z,24.53
2022-08-11T00:03:42.362Z,24.63
2022-08-11T00:06:14.245Z,24.59
2022-08-11T00:08:42.639Z,24.66
2022-08-11T00:11:12.520Z,24.76
2022-08-11T00:13:45.391Z,24.70
2022-08-11T00:16:17.716Z,24.74
2022-08-11T00:18:47.108Z,24.64
2022-08-11T00:21:15.338Z,24.66
2022-08-11T00:23:45.202Z,24.75
2022-08-11T00:26:14.633Z,24.76
2022-08-11T00:28:42.228Z,24.78
2022-08-11T00:31:19.413Z,24.75
2022-08-11T00:33:48.343Z,24.80
2022-08-11T00:36:20.855Z,24.74
2022-08-11T00:38:56.013Z,24.70
2022-08-11T00:41:32.081Z,24.58
2022-08-11T00:44:21.180Z,24.66
2022-08-11T00:46:57.534Z,24.32
2022-08-11T00:49:37.110Z,24.26
2022-08-11T00:52:25.920Z,24.35
2022-08-11T00:55:24.122Z,24.39
2022-08-11T00:58:22.634Z,24.50
2022-08-11T01:01:14.827Z,24.50
2022-08-11T01:03:54.138Z,24.49
2022-08-11T01:06:33.054Z,24.38
2022-08-11T01:09:22.055Z,24.34
2022-08-11T01:12:15.618Z,24.28
2022-08-11T01:15:13.495Z,24.23
2022-08-11T01:18:05.489Z,24.21
2022-08-11T01:21:25.180Z,24.16
2022-08-11T01:24:37.382Z,24.04
2022-08-11T01:27:41.340Z,24.04
2022-08-11T01:30:20.773Z,23.89
2022-08-11T01:33:39.338Z,23.85
2022-08-11T01:36:12.695Z,23.80
2022-08-11T01:38:58.252Z,23.80
2022-08-11T01:41:59.396Z,23.77
2022-08-11T01:44:38.591Z,23.84
2022-08-11T01:47:52.745Z,23.85
2022-08-11T01:51:02.217Z,23.78
2022-08-11T01:56:26.606Z,23.71
2022-08-11T01:59:00.803Z,23.69
2022-08-11T02:01:50.493Z,23.76
2022-08-11T02:04:26.584Z,23.65
2022-08-11T02:07:31.171Z,23.63
2022-08-11T02:10:36.672Z,23.68
2022-08-11T02:13:35.715Z,23.63
2022-08-11T02:16:24.558Z,23.69
2022-08-11T02:19:35.316Z,23.67
2022-08-11T02:25:02.469Z,23.71
2022-08-11T02:27:44.033Z,24.02
2022-08-11T02:30:16.977Z,24.12
2022-08-11T02:33:25.446Z,24.25
2022-08-11T02:35:54.737Z,24.24
2022-08-11T02:38:33.736Z,24.20
2022-08-11T02:41:32.051Z,24.31
2022-08-11T02:44:21.841Z,24.44
2022-08-11T02:47:07.104Z,24.42
2022-08-11T02:50:07.266Z,24.48
2022-08-11T02:52:45.493Z,24.55
2022-08-11T02:55:48.076Z,24.59
2022-08-11T02:58:17.445Z,24.99
2022-08-11T03:01:13.099Z,25.07
2022-08-11T03:04:04.875Z,25.16
2022-08-11T03:06:53.103Z,25.24
2022-08-11T03:09:44.431Z,25.48
2022-08-11T03:12:36.355Z,25.80
2022-08-11T03:15:41.579Z,26.29
2022-08-11T03:18:54.064Z,26.85
2022-08-11T03:21:23.709Z,27.32
2022-08-11T03:24:20.636Z,27.72
2022-08-11T03:26:47.846Z,28.26
2022-08-11T03:29:37.914Z,28.56
2022-08-11T03:32:20.388Z,28.97
2022-08-11T03:34:48.753Z,29.43
2022-08-11T03:37:46.997Z,29.62
2022-08-11T03:40:57.971Z,29.79
2022-08-11T03:43:34.709Z,30.25
2022-08-11T03:46:09.147Z,30.58
2022-08-11T03:48:54.578Z,30.61
2022-08-11T03:51:51.888Z,30.81
2022-08-11T03:54:29.819Z,31.11
2022-08-11T03:57:14.230Z,31.36
2022-08-11T03:59:44.993Z,31.66
2022-08-11T04:02:18.112Z,31.68
2022-08-11T04:05:07.639Z,31.65
2022-08-11T04:08:04.352Z,31.59
2022-08-11T04:11:09.252Z,31.94
2022-08-11T04:14:18.990Z,32.34
2022-08-11T04:17:22.874Z,32.90
2022-08-11T04:20:29.430Z,33.19
2022-08-11T04:24:34.687Z,33.33
2022-08-11T04:26:37.391Z,33.24
2022-08-11T04:29:18.206Z,33.49
2022-08-11T04:32:06.833Z,33.66
2022-08-11T04:34:34.152Z,33.83
2022-08-11T04:37:23.092Z,34.13
2022-08-11T04:40:11.236Z,34.17
2022-08-11T04:43:21.817Z,34.16
2022-08-11T04:46:10.893Z,34.04
2022-08-11T04:49:24.201Z,33.83
2022-08-11T04:52:44.180Z,33.70
2022-08-11T04:55:51.848Z,33.61
2022-08-11T04:59:10.983Z,33.33
2022-08-11T05:02:00.568Z,33.18
2022-08-11T05:05:17.166Z,33.06
2022-08-11T05:08:05.819Z,32.01
2022-08-11T05:10:43.387Z,31.92
2022-08-11T05:13:31.086Z,32.13
2022-08-11T05:16:20.670Z,32.23
2022-08-11T05:19:08.949Z,32.69
2022-08-11T05:21:55.363Z,33.09
2022-08-11T05:24:47.853Z,33.68
2022-08-11T05:27:35.395Z,33.88
2022-08-11T05:30:23.505Z,34.11
2022-08-11T05:33:23.311Z,33.82
2022-08-11T05:36:09.199Z,32.26
2022-08-11T05:38:55.707Z,30.89
2022-08-11T05:41:45.634Z,29.68
2022-08-11T05:44:37.287Z,28.90
2022-08-11T05:47:23.797Z,28.43
2022-08-11T05:50:13.691Z,28.05
2022-08-11T05:53:09.311Z,27.95
2022-08-11T05:56:03.886Z,27.71
2022-08-11T05:58:41.379Z,27.25
2022-08-11T06:01:16.938Z,27.16
2022-08-11T06:04:09.937Z,27.07
2022-08-11T06:06:45.151Z,26.94
2022-08-11T06:09:14.577Z,27.00
2022-08-11T06:11:44.826Z,26.98
2022-08-11T06:14:15.904Z,26.85
2022-08-11T06:16:48.562Z,26.83
2022-08-11T06:19:17.550Z,26.59
2022-08-11T06:21:49.641Z,26.73
2022-08-11T06:24:18.166Z,26.47
2022-08-11T06:29:55.278Z,26.54
2022-08-11T06:32:33.203Z,26.59
2022-08-11T06:35:24.943Z,26.43
2022-08-11T06:38:16.387Z,26.31
2022-08-11T06:41:31.039Z,26.28
2022-08-11T06:44:13.669Z,26.33
2022-08-11T06:46:43.977Z,26.22
2022-08-11T06:49:32.062Z,26.08
2022-08-11T06:52:05.805Z,25.66
2022-08-11T06:54:37.230Z,25.38
2022-08-11T06:57:32.136Z,25.30
2022-08-11T07:00:36.660Z,25.21
2022-08-11T07:03:11.940Z,25.17
2022-08-11T07:05:48.105Z,25.32
2022-08-11T07:08:37.255Z,25.45
2022-08-11T07:11:48.573Z,25.42
2022-08-11T07:14:41.793Z,25.45
2022-08-11T07:17:12.438Z,25.49
2022-08-11T07:20:02.674Z,25.54
2022-08-11T07:22:50.147Z,25.70
2022-08-11T07:25:37.121Z,25.68
2022-08-11T07:28:29.491Z,25.84
2022-08-11T07:31:02.021Z,25.97
2022-08-11T07:34:07.588Z,26.21
2022-08-11T07:36:34.013Z,26.38
2022-08-11T07:39:02.283Z,26.59
2022-08-11T07:41:34.425Z,26.72
2022-08-11T07:44:09.198Z,26.97
2022-08-11T07:46:59.142Z,27.12
2022-08-11T07:49:56.715Z,27.23
2022-08-11T07:52:29.958Z,27.36
2022-08-11T07:55:02.462Z,27.35
2022-08-11T07:58:13.960Z,27.69
2022-08-11T08:01:10.651Z,27.96
2022-08-11T08:04:03.022Z,27.99
2022-08-11T08:06:51.703Z,28.03
2022-08-11T08:09:39.120Z,28.03
2022-08-11T08:12:26.733Z,28.23
2022-08-11T08:15:14.956Z,28.45
2022-08-11T08:18:09.040Z,28.38
2022-08-11T08:20:47.375Z,28.47
2022-08-11T08:23:15.817Z,28.70
2022-08-11T08:25:45.157Z,28.84
2022-08-11T08:28:23.332Z,29.01
2022-08-11T08:30:51.807Z,29.06
2022-08-11T08:33:31.012Z,29.02
2022-08-11T08:36:14.851Z,29.03
2022-08-11T08:38:44.008Z,29.11
2022-08-11T08:41:16.320Z,29.26
2022-08-11T08:43:52.209Z,29.38
2022-08-11T08:46:22.519Z,29.73
2022-08-11T08:49:03.813Z,29.73
2022-08-11T08:51:58.599Z,29.74
2022-08-11T08:54:48.550Z,29.66
2022-08-11T08:57:52.168Z,29.78
2022-08-11T09:00:49.105Z,29.80
2022-08-11T09:04:02.990Z,29.69
2022-08-11T09:06:10.419Z,29.70
2022-08-11T09:08:42.013Z,29.78
2022-08-11T09:11:33.251Z,30.04
2022-08-11T09:14:05.892Z,30.07
2022-08-11T09:16:39.246Z,30.21
2022-08-11T09:19:15.625Z,30.20
2022-08-11T09:22:07.938Z,30.41
2022-08-11T09:24:57.714Z,30.51
2022-08-11T09:27:26.303Z,30.50
2022-08-11T09:29:54.096Z,30.56
2022-08-11T09:32:29.718Z,30.64
2022-08-11T09:35:01.017Z,30.80
2022-08-11T09:37:54.760Z,30.95
2022-08-11T09:40:31.248Z,30.97
2022-08-11T09:43:21.930Z,31.04
2022-08-11T09:45:52.481Z,31.06
2022-08-11T09:48:21.443Z,31.19
2022-08-11T09:50:53.479Z,31.48
2022-08-11T09:53:35.834Z,31.48
2022-08-11T09:56:30.984Z,31.40
2022-08-11T09:58:59.247Z,31.54
2022-08-11T10:01:31.493Z,31.53
2022-08-11T10:04:04.546Z,31.67
2022-08-11T10:07:04.621Z,31.52
2022-08-11T10:09:58.178Z,31.59
2022-08-11T10:12:52.761Z,31.70
2022-08-11T10:15:38.286Z,31.94
2022-08-11T10:18:37.844Z,32.21
2022-08-11T10:21:22.951Z,32.49
2022-08-11T10:24:11.935Z,32.86
2022-08-11T10:26:53.837Z,33.24
2022-08-11T10:29:54.347Z,33.46
2022-08-11T10:32:59.006Z,33.73
2022-08-11T10:35:41.057Z,33.89
2022-08-11T10:38:18.884Z,33.87
2022-08-11T10:41:33.332Z,33.88
2022-08-11T10:47:49.670Z,33.76
2022-08-11T10:50:39.741Z,33.90
2022-08-11T10:53:28.141Z,33.85
2022-08-11T11:14:00.039Z,34.32
2022-08-11T11:16:57.932Z,34.47
2022-08-11T11:19:27.247Z,34.24
2022-08-11T11:22:24.080Z,34.46
2022-08-11T11:25:16.820Z,34.26
2022-08-11T11:28:08.096Z,34.06
2022-08-11T11:30:49.612Z,33.74
2022-08-11T11:33:27.960Z,33.47
2022-08-11T11:36:22.359Z,33.23
2022-08-11T11:38:53.890Z,33.25
2022-08-11T11:41:28.129Z,33.06
2022-08-11T11:44:00.417Z,33.01
2022-08-11T11:50:46.007Z,32.79
2022-08-11T11:53:18.007Z,32.80
2022-08-11T11:56:15.843Z,32.87
2022-08-11T11:59:07.668Z,32.72
2022-08-11T12:01:42.909Z,32.70
2022-08-11T12:04:25.664Z,32.70
2022-08-11T12:10:22.058Z,32.53
2022-08-11T12:18:39.114Z,32.92
2022-08-11T12:21:14.722Z,32.81
2022-08-11T12:24:05.598Z,32.75
2022-08-11T12:27:02.813Z,32.78
2022-08-11T12:29:41.237Z,32.88
2022-08-11T12:36:00.778Z,33.10
2022-08-11T12:38:51.182Z,32.87
2022-08-11T12:41:50.831Z,33.03
2022-08-11T12:44:39.939Z,33.09
2022-08-11T12:47:11.971Z,32.97
2022-08-11T12:50:05.749Z,33.13
2022-08-11T12:53:40.153Z,33.21
2022-08-11T12:56:29.043Z,33.12
2022-08-11T12:59:15.643Z,33.20
2022-08-11T13:02:02.714Z,33.15
2022-08-11T13:04:53.442Z,32.92
2022-08-11T13:07:50.531Z,32.88
2022-08-11T13:10:45.243Z,32.87
2022-08-11T13:13:52.741Z,32.82
2022-08-11T13:16:03.278Z,32.94
2022-08-11T13:18:36.571Z,32.99
2022-08-11T13:21:08.952Z,33.14
2022-08-11T13:23:39.525Z,33.08
2022-08-11T13:26:12.567Z,32.93
2022-08-11T13:28:55.516Z,33.13
2022-08-11T13:31:24.285Z,33.45
2022-08-11T13:34:06.002Z,33.20
2022-08-11T13:36:35.774Z,33.00
2022-08-11T13:39:16.708Z,32.99
2022-08-11T13:42:06.323Z,33.01
2022-08-11T13:44:39.299Z,33.06
2022-08-11T13:47:08.717Z,32.98
2022-08-11T13:49:40.219Z,32.87
2022-08-11T13:52:16.210Z,32.80
2022-08-11T13:54:49.026Z,32.92
2022-08-11T13:58:06.551Z,32.96
2022-08-11T14:00:25.019Z,33.00
2022-08-11T14:02:58.687Z,33.09
2022-08-11T14:05:45.918Z,33.40
2022-08-11T14:08:37.286Z,33.55
2022-08-11T14:12:21.994Z,33.30
2022-08-11T14:14:25.073Z,33.11
2022-08-11T14:16:57.314Z,32.91
2022-08-11T14:19:30.574Z,32.68
2022-08-11T14:22:17.376Z,32.49
2022-08-11T14:24:55.282Z,32.32
2022-08-11T14:30:34.910Z,32.21
2022-08-11T14:33:16.538Z,32.12
2022-08-11T14:35:48.792Z,31.96
2022-08-11T14:38:29.284Z,32.06
2022-08-11T14:41:31.197Z,31.93
2022-08-11T14:44:27.659Z,32.14
2022-08-11T14:47:23.726Z,32.01
2022-08-11T14:50:15.037Z,31.84
2022-08-11T14:53:19.333Z,31.97
2022-08-11T14:56:05.966Z,32.10
2022-08-11T14:58:34.725Z,32.34
2022-08-11T15:01:24.085Z,32.34
2022-08-11T15:04:34.032Z,32.29
2022-08-11T15:06:40.813Z,32.12
2022-08-11T15:09:09.579Z,32.10
2022-08-11T15:11:56.183Z,32.11
2022-08-11T15:14:48.162Z,32.05
2022-08-11T15:17:16.275Z,31.91
2022-08-11T15:20:03.598Z,32.02
2022-08-11T15:22:50.106Z,31.89
2022-08-11T15:25:20.036Z,31.69
2022-08-11T15:28:09.804Z,31.59
2022-08-11T15:30:57.529Z,31.54
2022-08-11T15:33:46.277Z,31.52
2022-08-11T15:36:33.180Z,31.50
2022-08-11T15:39:38.055Z,31.64
2022-08-11T15:42:34.137Z,31.60
2022-08-11T15:45:23.239Z,31.41
2022-08-11T15:48:05.637Z,31.21
2022-08-11T15:50:40.903Z,31.13
2022-08-11T15:53:56.232Z,31.22
2022-08-11T15:56:28.233Z,31.09
2022-08-11T15:59:41.995Z,30.72
2022-08-11T16:02:56.903Z,30.54
2022-08-11T16:05:59.769Z,30.44
2022-08-11T16:08:51.609Z,30.32
2022-08-11T16:11:27.157Z,30.18
2022-08-11T16:14:13.962Z,30.29
2022-08-11T16:16:43.444Z,30.30
2022-08-11T16:19:13.506Z,30.35
2022-08-11T16:21:44.128Z,30.23
2022-08-11T16:27:05.523Z,30.36
2022-08-11T16:27:13.095Z,30.16
2022-08-11T16:29:46.589Z,30.03
2022-08-11T16:32:20.615Z,29.89
2022-08-11T16:35:11.893Z,29.69
2022-08-11T16:37:59.894Z,29.45
2022-08-11T16:40:29.819Z,29.33
2022-08-11T16:43:17.197Z,29.22
2022-08-11T16:46:03.754Z,29.14
2022-08-11T16:48:37.813Z,29.05
2022-08-11T16:51:07.917Z,29.02
2022-08-11T16:53:59.993Z,28.94
2022-08-11T16:56:41.799Z,28.90
2022-08-11T16:59:15.229Z,28.85
2022-08-11T17:01:53.816Z,28.82
2022-08-11T17:04:48.784Z,28.77
2022-08-11T17:07:41.643Z,28.75
2022-08-11T17:11:04.060Z,28.70
2022-08-11T17:13:36.125Z,28.64
2022-08-11T17:16:08.131Z,28.59
2022-08-11T17:19:13.081Z,28.56
2022-08-11T17:22:04.446Z,28.53
2022-08-11T17:24:35.944Z,28.48
2022-08-11T17:27:06.246Z,28.44
2022-08-11T17:29:54.507Z,28.40
2022-08-11T17:33:00.755Z,28.38
2022-08-11T17:35:32.340Z,28.34
2022-08-11T17:38:13.114Z,28.33
2022-08-11T17:41:05.508Z,28.28
2022-08-11T17:43:54.150Z,28.27
2022-08-11T17:46:41.412Z,28.23
2022-08-11T17:49:12.045Z,28.17
2022-08-11T17:52:04.255Z,28.18
2022-08-11T17:54:54.449Z,28.14
2022-08-11T17:57:47.522Z,28.16
2022-08-11T18:00:17.461Z,28.16
2022-08-11T18:03:08.230Z,28.12
2022-08-11T18:05:42.614Z,28.08
2022-08-11T18:08:37.157Z,28.06
2022-08-11T18:12:06.524Z,28.02
2022-08-11T18:14:50.611Z,27.98
2022-08-11T18:17:42.010Z,28.02
2022-08-11T18:20:35.268Z,28.07
2022-08-11T18:23:40.640Z,28.10
2022-08-11T18:26:39.242Z,28.14
2022-08-11T18:29:28.981Z,28.16
2022-08-11T18:32:33.873Z,28.18
2022-08-11T18:35:31.724Z,28.10
2022-08-11T18:38:24.012Z,28.05
2022-08-11T18:41:21.207Z,27.96
2022-08-11T18:44:15.928Z,27.96
2022-08-11T18:47:05.871Z,28.00
2022-08-11T18:50:05.749Z,27.99
2022-08-11T18:53:01.021Z,27.93
2022-08-11T18:55:54.419Z,27.83
2022-08-11T18:58:49.142Z,27.67
2022-08-11T19:01:45.925Z,27.71
2022-08-11T19:04:53.273Z,27.68
2022-08-11T19:07:51.650Z,27.63
2022-08-11T19:10:41.309Z,27.60
2022-08-11T19:13:31.449Z,27.66
2022-08-11T19:16:18.036Z,27.67
2022-08-11T19:19:10.427Z,27.67
2022-08-11T19:21:57.704Z,27.68
2022-08-11T19:24:48.063Z,27.66
2022-08-11T19:27:35.722Z,27.60
2022-08-11T19:30:23.023Z,27.51
2022-08-11T19:33:13.824Z,27.43
2022-08-11T19:36:01.584Z,27.37
2022-08-11T19:38:52.053Z,27.34
2022-08-11T19:42:31.259Z,27.28
2022-08-11T19:45:21.388Z,27.30
2022-08-11T19:48:31.380Z,27.28
2022-08-11T19:51:21.550Z,27.31
2022-08-11T19:54:09.693Z,27.31
2022-08-11T19:57:04.173Z,27.30
2022-08-11T19:59:54.408Z,27.33
2022-08-11T20:02:40.547Z,27.33
2022-08-11T20:05:32.151Z,27.33
2022-08-11T20:08:21.752Z,27.27
2022-08-11T20:11:09.747Z,27.27
2022-08-11T20:14:01.908Z,27.23
2022-08-11T20:16:48.379Z,27.18
2022-08-11T20:19:54.977Z,27.16
2022-08-11T20:22:46.870Z,27.14
2022-08-11T20:25:37.018Z,27.09
2022-08-11T20:28:24.522Z,27.06
2022-08-11T20:31:11.630Z,27.04
2022-08-11T20:33:58.103Z,27.04
2022-08-11T20:36:54.564Z,26.98
2022-08-11T20:39:44.378Z,26.96
2022-08-11T20:42:33.159Z,26.92
2022-08-11T20:45:23.936Z,26.91
2022-08-11T20:48:14.689Z,26.91
2022-08-11T20:51:07.199Z,26.87
2022-08-11T20:53:56.867Z,26.85
2022-08-11T20:56:45.761Z,27.01
2022-08-11T20:59:49.303Z,27.07
2022-08-11T21:02:40.349Z,27.02
2022-08-11T21:06:10.580Z,27.03
2022-08-11T21:08:44.008Z,26.94
2022-08-11T21:11:33.609Z,27.07
2022-08-11T21:14:22.757Z,26.99
2022-08-11T21:17:27.555Z,26.91
2022-08-11T21:20:21.498Z,26.87
2022-08-11T21:23:23.689Z,26.87
2022-08-11T21:26:21.228Z,26.86
2022-08-11T21:29:07.287Z,26.86
2022-08-11T21:31:53.826Z,26.88
2022-08-11T21:34:41.250Z,26.90
2022-08-11T21:37:28.341Z,26.93
2022-08-11T21:40:17.403Z,26.90
2022-08-11T21:43:06.469Z,26.87
2022-08-11T21:45:54.579Z,26.82
2022-08-11T21:48:42.347Z,26.76
2022-08-11T21:51:28.932Z,26.75
2022-08-11T21:54:17.021Z,26.75
2022-08-11T21:57:04.393Z,26.75
2022-08-11T22:00:09.235Z,26.78
2022-08-11T22:02:57.237Z,26.84
2022-08-11T22:05:44.471Z,26.89
2022-08-11T22:08:31.038Z,26.93
2022-08-11T22:11:32.037Z,26.94
2022-08-11T22:14:19.927Z,26.96
2022-08-11T22:17:06.074Z,26.96
2022-08-11T22:19:53.900Z,26.99
2022-08-11T22:22:52.201Z,27.01
2022-08-11T22:25:51.428Z,27.00
2022-08-11T22:28:39.511Z,26.99
2022-08-11T22:31:27.688Z,26.97
2022-08-11T22:34:13.417Z,26.97
2022-08-11T22:37:04.088Z,26.96
2022-08-11T22:39:58.335Z,26.94
2022-08-11T22:42:50.530Z,26.91
2022-08-11T22:45:37.337Z,26.83
2022-08-11T22:48:27.939Z,26.77
2022-08-11T22:51:14.966Z,26.67
2022-08-11T22:54:01.840Z,26.59
2022-08-11T22:56:49.393Z,26.53
2022-08-11T22:59:37.562Z,26.48
2022-08-11T23:02:25.584Z,26.39
2022-08-11T23:05:11.876Z,26.26
2022-08-11T23:07:59.859Z,26.20
2022-08-11T23:10:46.395Z,26.15
2022-08-11T23:13:32.556Z,26.07
2022-08-11T23:16:27.059Z,25.96
2022-08-11T23:20:04.818Z,25.82
2022-08-11T23:23:02.126Z,25.74
2022-08-11T23:25:49.927Z,25.71
2022-08-11T23:28:35.642Z,25.70
2022-08-11T23:31:23.066Z,25.64
2022-08-11T23:35:03.972Z,25.60
2022-08-11T23:37:18.930Z,25.46
2022-08-11T23:40:04.913Z,25.31
2022-08-11T23:42:58.430Z,25.16
2022-08-11T23:45:45.379Z,25.07
2022-08-11T23:48:35.278Z,24.99
2022-08-11T23:51:21.379Z,24.93
2022-08-11T23:54:07.879Z,24.91
2022-08-11T23:56:55.157Z,24.93
2022-08-11T23:59:41.048Z,24.95
